createdAt,value
2022-10-05T00:00:46.728Z,17.00
2022-10-05T00:03:15.201Z,17.00
2022-10-05T00:05:44.471Z,17.00
2022-10-05T00:08:14.479Z,17.00
2022-10-05T00:10:43.960Z,17.00
2022-10-05T00:13:16.152Z,17.00
2022-10-05T00:15:44.427Z,17.00
2022-10-05T00:18:14.985Z,17.00
2022-10-05T00:20:43.284Z,17.00
2022-10-05T00:23:15.796Z,17.00
2022-10-05T00:25:45.475Z,17.00
2022-10-05T00:28:19.029Z,17.00
2022-10-05T00:30:47.562Z,17.00
2022-10-05T00:33:16.855Z,17.00
2022-10-05T00:35:45.499Z,17.00
2022-10-05T00:38:13.600Z,17.00
2022-10-05T00:40:51.573Z,17.00
2022-10-05T00:43:32.012Z,17.00
2022-10-05T00:46:06.313Z,17.00
2022-10-05T00:48:39.165Z,17.00
2022-10-05T00:51:17.987Z,17.00
2022-10-05T00:53:49.365Z,17.00
2022-10-05T00:56:31.146Z,17.00
2022-10-05T00:59:04.293Z,17.00
2022-10-05T01:01:34.801Z,17.00
2022-10-05T01:04:08.378Z,17.00
2022-10-05T01:06:39.749Z,17.00
2022-10-05T01:09:13.655Z,16.90
2022-10-05T01:11:47.915Z,17.00
2022-10-05T01:14:18.361Z,17.00
2022-10-05T01:16:49.809Z,16.90
2022-10-05T01:19:31.115Z,17.00
2022-10-05T01:22:05.377Z,16.90
2022-10-05T01:24:41.812Z,16.90
2022-10-05T01:27:49.457Z,16.90
2022-10-05T01:30:18.346Z,16.90
2022-10-05T01:32:51.428Z,16.90
2022-10-05T01:35:26.130Z,16.90
2022-10-05T01:37:59.385Z,16.90
2022-10-05T01:40:31.353Z,16.90
2022-10-05T01:43:07.841Z,16.90
2022-10-05T01:45:39.753Z,16.90
2022-10-05T01:48:10.101Z,16.90
2022-10-05T01:50:45.196Z,16.90
2022-10-05T01:53:18.857Z,16.90
2022-10-05T01:55:50.208Z,16.90
2022-10-05T01:58:22.269Z,16.80
2022-10-05T02:00:53.542Z,16.80
2022-10-05T02:03:26.386Z,16.80
2022-10-05T02:05:56.135Z,16.80
2022-10-05T02:08:27.200Z,16.70
2022-10-05T02:10:59.614Z,16.70
2022-10-05T02:13:33.625Z,16.70
2022-10-05T02:16:02.837Z,16.70
2022-10-05T02:18:33.755Z,16.70
2022-10-05T02:21:01.895Z,16.70
2022-10-05T02:23:32.626Z,16.60
2022-10-05T02:26:00.797Z,16.60
2022-10-05T02:28:32.360Z,16.60
2022-10-05T02:31:02.061Z,16.60
2022-10-05T02:33:33.122Z,16.50
2022-10-05T02:36:02.652Z,16.50
2022-10-05T02:38:35.537Z,16.60
2022-10-05T02:41:07.014Z,16.50
2022-10-05T02:43:45.491Z,16.50
2022-10-05T02:46:18.888Z,16.50
2022-10-05T02:48:50.381Z,16.50
2022-10-05T02:51:22.385Z,16.50
2022-10-05T02:53:59.021Z,16.50
2022-10-05T02:56:29.819Z,16.50
2022-10-05T02:59:02.685Z,16.50
2022-10-05T03:01:34.020Z,16.40
2022-10-05T03:04:08.991Z,16.50
2022-10-05T03:06:39.669Z,16.50
2022-10-05T03:09:08.260Z,16.50
2022-10-05T03:11:41.038Z,16.40
2022-10-05T03:14:14.633Z,16.50
2022-10-05T03:16:49.171Z,16.50
2022-10-05T03:19:23.831Z,16.40
2022-10-05T03:21:56.935Z,16.40
2022-10-05T03:24:44.046Z,16.40
2022-10-05T03:27:24.340Z,16.40
2022-10-05T03:29:57.234Z,16.40
2022-10-05T03:32:28.738Z,16.40
2022-10-05T03:35:00.254Z,16.40
2022-10-05T03:37:31.729Z,16.40
2022-10-05T03:40:04.255Z,16.40
2022-10-05T03:42:37.140Z,16.40
2022-10-05T03:45:08.596Z,16.40
2022-10-05T03:47:40.618Z,16.40
2022-10-05T03:50:23.885Z,16.40
2022-10-05T03:52:57.959Z,16.40
2022-10-05T03:55:29.591Z,16.40
2022-10-05T03:57:58.826Z,16.30
2022-10-05T04:00:28.836Z,16.40
2022-10-05T04:02:59.294Z,16.40
2022-10-05T04:05:29.871Z,16.40
2022-10-05T04:08:00.631Z,16.40
2022-10-05T04:10:30.815Z,16.40
2022-10-05T04:13:02.632Z,16.40
2022-10-05T04:15:35.125Z,16.40
2022-10-05T04:18:05.045Z,16.40
2022-10-05T04:20:36.595Z,16.40
2022-10-05T04:23:13.643Z,16.40
2022-10-05T04:25:43.898Z,16.40
2022-10-05T04:28:14.514Z,16.40
2022-10-05T04:30:46.472Z,16.40
2022-10-05T04:33:16.225Z,16.40
2022-10-05T04:35:58.699Z,16.40
2022-10-05T04:38:42.384Z,16.40
2022-10-05T04:41:18.002Z,16.40
2022-10-05T04:43:50.754Z,16.40
2022-10-05T04:46:26.031Z,16.40
2022-10-05T04:49:11.787Z,16.40
2022-10-05T04:51:47.677Z,16.40
2022-10-05T04:54:24.610Z,16.40
2022-10-05T04:56:54.728Z,16.30
2022-10-05T04:59:45.055Z,16.30
2022-10-05T05:02:20.153Z,16.40
2022-10-05T05:05:24.243Z,16.40
2022-10-05T05:07:55.987Z,16.40
2022-10-05T05:10:37.148Z,16.30
2022-10-05T05:13:10.990Z,16.30
2022-10-05T05:15:42.987Z,16.30
2022-10-05T05:18:33.608Z,16.30
2022-10-05T05:21:04.508Z,16.30
2022-10-05T05:23:36.747Z,16.30
2022-10-05T05:26:09.581Z,16.30
2022-10-05T05:28:45.386Z,16.30
2022-10-05T05:31:18.457Z,16.20
2022-10-05T05:33:52.764Z,16.20
2022-10-05T05:36:26.980Z,16.20
2022-10-05T05:39:06.538Z,16.20
2022-10-05T05:41:38.623Z,16.20
2022-10-05T05:44:13.281Z,16.10
2022-10-05T05:47:02.829Z,16.10
2022-10-05T05:49:43.005Z,16.20
2022-10-05T05:52:17.169Z,16.10
2022-10-05T05:54:46.973Z,16.20
2022-10-05T05:57:18.103Z,16.10
2022-10-05T05:59:53.669Z,16.20
2022-10-05T06:02:23.366Z,16.20
2022-10-05T06:04:55.514Z,16.20
2022-10-05T06:07:30.423Z,16.20
2022-10-05T06:10:00.712Z,16.20
2022-10-05T06:12:30.223Z,16.20
2022-10-05T06:14:59.113Z,16.20
2022-10-05T06:17:33.218Z,16.20
2022-10-05T06:20:05.483Z,16.30
2022-10-05T06:22:35.389Z,16.30
2022-10-05T06:25:07.961Z,16.30
2022-10-05T06:27:42.220Z,16.30
2022-10-05T06:30:11.387Z,16.30
2022-10-05T06:33:02.108Z,16.30
2022-10-05T06:35:39.213Z,16.30
2022-10-05T06:38:27.188Z,16.40
2022-10-05T06:41:01.227Z,16.40
2022-10-05T06:43:42.125Z,16.40
2022-10-05T06:46:16.202Z,16.40
2022-10-05T06:48:53.613Z,16.40
2022-10-05T06:51:27.794Z,16.50
2022-10-05T06:54:04.936Z,16.50
2022-10-05T06:56:34.505Z,16.50
2022-10-05T06:59:06.069Z,16.50
2022-10-05T07:01:40.544Z,16.50
2022-10-05T07:04:37.168Z,16.50
2022-10-05T07:07:10.141Z,16.60
2022-10-05T07:09:42.700Z,16.50
2022-10-05T07:12:23.783Z,16.50
2022-10-05T07:15:20.965Z,16.60
2022-10-05T07:17:54.569Z,16.60
2022-10-05T07:20:26.358Z,16.60
2022-10-05T07:23:05.230Z,16.60
2022-10-05T07:25:36.588Z,16.60
2022-10-05T07:28:07.015Z,16.60
2022-10-05T07:30:43.677Z,16.60
2022-10-05T07:33:18.837Z,16.70
2022-10-05T07:36:08.785Z,16.70
2022-10-05T07:38:40.631Z,16.70
2022-10-05T07:41:10.349Z,16.70
2022-10-05T07:44:01.383Z,16.70
2022-10-05T07:46:33.545Z,16.70
2022-10-05T07:49:03.952Z,16.80
2022-10-05T07:51:36.406Z,16.80
2022-10-05T07:54:34.464Z,16.80
2022-10-05T07:57:05.562Z,16.80
2022-10-05T07:59:40.530Z,16.80
2022-10-05T08:02:16.891Z,16.80
2022-10-05T08:04:48.538Z,16.90
2022-10-05T08:07:17.733Z,16.90
2022-10-05T08:09:49.906Z,16.90
2022-10-05T08:12:25.976Z,16.90
2022-10-05T08:15:02.807Z,16.90
2022-10-05T08:17:47.948Z,16.90
2022-10-05T08:20:39.471Z,16.90
2022-10-05T08:23:13.707Z,17.00
2022-10-05T08:25:47.781Z,17.00
2022-10-05T08:28:18.794Z,17.00
2022-10-05T08:31:10.600Z,17.00
2022-10-05T08:33:45.707Z,17.00
2022-10-05T08:36:14.423Z,17.00
2022-10-05T08:38:44.706Z,17.00
2022-10-05T08:41:46.221Z,17.00
2022-10-05T08:44:50.340Z,17.00
2022-10-05T08:47:25.105Z,17.00
2022-10-05T08:50:23.511Z,17.00
2022-10-05T08:53:21.508Z,17.00
2022-10-05T08:55:57.181Z,17.00
2022-10-05T08:58:38.839Z,17.10
2022-10-05T09:01:11.504Z,17.10
2022-10-05T09:04:06.169Z,17.10
2022-10-05T09:07:01.723Z,17.10
2022-10-05T09:09:57.219Z,17.20
2022-10-05T09:12:58.612Z,17.30
2022-10-05T09:15:49.774Z,17.40
2022-10-05T09:18:51.895Z,17.40
2022-10-05T09:21:29.532Z,17.50
2022-10-05T09:24:03.907Z,17.60
2022-10-05T09:26:44.174Z,17.70
2022-10-05T09:29:30.669Z,17.70
2022-10-05T09:32:16.480Z,17.70
2022-10-05T09:34:57.347Z,17.80
2022-10-05T09:37:46.489Z,17.80
2022-10-05T09:40:47.694Z,17.80
2022-10-05T09:43:52.720Z,17.80
2022-10-05T09:46:50.077Z,17.80
2022-10-05T09:49:49.442Z,17.80
2022-10-05T09:52:44.894Z,17.80
2022-10-05T09:55:44.455Z,17.80
2022-10-05T09:59:07.530Z,17.80
2022-10-05T10:02:12.022Z,17.80
2022-10-05T10:04:52.075Z,17.80
2022-10-05T10:07:40.581Z,17.70
2022-10-05T10:10:32.831Z,17.80
2022-10-05T10:13:27.977Z,17.70
2022-10-05T10:16:11.215Z,17.70
2022-10-05T10:19:03.986Z,17.70
2022-10-05T10:22:03.213Z,17.70
2022-10-05T10:24:52.570Z,17.70
2022-10-05T10:27:37.889Z,17.70
2022-10-05T10:30:39.093Z,17.70
2022-10-05T10:33:43.136Z,17.60
2022-10-05T10:36:13.237Z,17.60
2022-10-05T10:38:48.690Z,17.60
2022-10-05T10:41:57.807Z,17.70
2022-10-05T10:44:58.950Z,17.70
2022-10-05T10:47:43.150Z,17.70
2022-10-05T10:50:41.661Z,17.70
2022-10-05T10:53:29.523Z,17.70
2022-10-05T10:56:12.955Z,17.70
2022-10-05T10:58:55.471Z,17.70
2022-10-05T11:01:31.724Z,17.70
2022-10-05T11:04:29.295Z,17.70
2022-10-05T11:07:25.058Z,17.80
2022-10-05T11:10:28.699Z,17.80
2022-10-05T11:13:33.533Z,17.80
2022-10-05T11:16:20.128Z,17.80
2022-10-05T11:19:20.498Z,17.80
2022-10-05T11:22:09.732Z,17.80
2022-10-05T11:24:50.868Z,17.80
2022-10-05T11:27:47.101Z,17.80
2022-10-05T11:31:03.473Z,17.80
2022-10-05T11:33:52.158Z,17.80
2022-10-05T11:36:48.498Z,17.80
2022-10-05T11:39:33.379Z,17.80
2022-10-05T11:42:35.712Z,17.80
2022-10-05T11:45:36.997Z,17.80
2022-10-05T11:48:25.869Z,17.80
2022-10-05T11:51:06.446Z,17.80
2022-10-05T11:53:37.600Z,17.80
2022-10-05T11:56:09.700Z,17.80
2022-10-05T11:58:40.027Z,17.80
2022-10-05T12:01:13.963Z,17.80
2022-10-05T12:03:51.785Z,17.90
2022-10-05T12:06:28.264Z,18.00
2022-10-05T12:09:04.281Z,18.00
2022-10-05T12:11:52.332Z,18.00
2022-10-05T12:14:30.139Z,18.00
2022-10-05T12:17:00.764Z,18.10
2022-10-05T12:19:36.205Z,18.10
2022-10-05T12:22:18.182Z,18.10
2022-10-05T12:25:01.917Z,18.10
2022-10-05T12:27:35.612Z,18.10
2022-10-05T12:30:07.522Z,18.20
2022-10-05T12:32:41.606Z,18.20
2022-10-05T12:35:29.680Z,18.20
2022-10-05T12:38:24.955Z,18.30
2022-10-05T12:41:02.466Z,18.30
2022-10-05T12:43:38.651Z,18.40
2022-10-05T12:46:10.501Z,18.40
2022-10-05T12:48:53.125Z,18.40
2022-10-05T12:51:26.203Z,18.40
2022-10-05T12:54:02.168Z,18.40
2022-10-05T12:56:35.948Z,18.40
2022-10-05T12:59:14.339Z,18.40
2022-10-05T13:01:44.591Z,18.40
2022-10-05T13:04:23.415Z,18.40
2022-10-05T13:07:06.647Z,18.40
2022-10-05T13:09:38.182Z,18.40
2022-10-05T13:12:10.735Z,18.40
2022-10-05T13:14:48.065Z,18.40
2022-10-05T13:17:23.387Z,18.40
2022-10-05T13:19:56.747Z,18.40
2022-10-05T13:22:35.792Z,18.40
2022-10-05T13:25:19.854Z,18.40
2022-10-05T13:28:10.035Z,18.40
2022-10-05T13:30:38.743Z,18.40
2022-10-05T13:33:18.080Z,18.40
2022-10-05T13:35:51.902Z,18.50
2022-10-05T13:38:27.931Z,18.50
2022-10-05T13:41:01.516Z,18.50
2022-10-05T13:43:35.127Z,18.50
2022-10-05T13:46:09.279Z,18.50
2022-10-05T13:48:51.595Z,18.50
2022-10-05T13:51:20.852Z,18.60
2022-10-05T13:53:57.097Z,18.60
2022-10-05T13:56:30.638Z,18.70
2022-10-05T13:59:05.563Z,18.70
2022-10-05T14:01:40.884Z,18.80
2022-10-05T14:04:17.703Z,18.80
2022-10-05T14:06:46.071Z,18.90
2022-10-05T14:09:15.443Z,18.80
2022-10-05T14:11:51.351Z,18.80
2022-10-05T14:14:30.507Z,18.80
2022-10-05T14:17:06.224Z,18.80
2022-10-05T14:19:37.202Z,18.80
2022-10-05T14:22:13.779Z,18.70
2022-10-05T14:24:49.259Z,18.70
2022-10-05T14:27:33.941Z,18.70
2022-10-05T14:30:03.434Z,18.70
2022-10-05T14:32:40.434Z,18.70
2022-10-05T14:35:16.937Z,18.70
2022-10-05T14:37:55.193Z,18.70
2022-10-05T14:40:34.014Z,18.80
2022-10-05T14:43:22.219Z,19.00
2022-10-05T14:45:57.721Z,19.30
2022-10-05T14:48:28.049Z,19.30
2022-10-05T14:50:59.480Z,19.30
2022-10-05T14:53:34.052Z,19.20
2022-10-05T14:56:28.071Z,19.10
2022-10-05T14:59:36.171Z,19.00
2022-10-05T15:02:18.009Z,18.90
2022-10-05T15:04:49.913Z,18.90
2022-10-05T15:07:23.196Z,18.80
2022-10-05T15:10:05.342Z,18.80
2022-10-05T15:12:34.964Z,18.80
2022-10-05T15:15:22.592Z,18.70
2022-10-05T15:25:00.589Z,18.60
2022-10-05T15:27:32.813Z,18.60
2022-10-05T15:30:09.940Z,18.50
2022-10-05T15:32:46.494Z,18.60
2022-10-05T15:35:36.833Z,18.60
2022-10-05T15:38:10.604Z,18.60
2022-10-05T15:40:44.334Z,18.60
2022-10-05T15:43:21.630Z,18.60
2022-10-05T15:45:54.776Z,18.60
2022-10-05T15:48:29.250Z,18.50
2022-10-05T15:51:07.227Z,18.50
2022-10-05T15:53:38.975Z,18.50
2022-10-05T15:56:08.541Z,18.40
2022-10-05T15:58:55.106Z,18.40
2022-10-05T16:01:47.974Z,18.40
2022-10-05T16:04:19.395Z,18.40
2022-10-05T16:07:08.111Z,18.30
2022-10-05T16:09:47.670Z,18.30
2022-10-05T16:12:35.642Z,18.30
2022-10-05T16:15:26.498Z,18.30
2022-10-05T16:18:40.084Z,18.30
2022-10-05T16:21:14.344Z,18.20
2022-10-05T16:23:50.235Z,18.20
2022-10-05T16:26:24.087Z,18.20
2022-10-05T16:28:57.853Z,18.20
2022-10-05T16:31:31.099Z,18.20
2022-10-05T16:34:03.410Z,18.20
2022-10-05T16:36:44.539Z,18.20
2022-10-05T16:39:16.771Z,18.20
2022-10-05T16:41:50.623Z,18.20
2022-10-05T16:44:23.263Z,18.20
2022-10-05T16:46:53.764Z,18.20
2022-10-05T16:49:29.222Z,18.20
2022-10-05T16:52:03.317Z,18.20
2022-10-05T16:54:33.813Z,18.20
2022-10-05T16:57:04.438Z,18.10
2022-10-05T17:00:09.894Z,18.10
2022-10-05T17:02:53.345Z,18.20
2022-10-05T17:05:33.654Z,18.20
2022-10-05T17:08:08.166Z,18.10
2022-10-05T17:10:47.238Z,18.10
2022-10-05T17:13:29.804Z,18.10
2022-10-05T17:16:04.216Z,18.10
2022-10-05T17:19:08.699Z,18.10
2022-10-05T17:21:39.743Z,18.10
2022-10-05T17:24:26.812Z,18.10
2022-10-05T17:27:04.254Z,18.10
2022-10-05T17:29:53.633Z,18.10
2022-10-05T17:32:39.598Z,18.10
2022-10-05T17:35:19.221Z,18.10
2022-10-05T17:38:09.595Z,18.10
2022-10-05T17:40:39.307Z,18.00
2022-10-05T17:43:34.523Z,18.00
2022-10-05T17:46:03.347Z,18.00
2022-10-05T17:49:06.848Z,18.00
2022-10-05T17:52:23.755Z,18.10
2022-10-05T17:55:28.503Z,18.10
2022-10-05T17:58:00.004Z,18.00
2022-10-05T18:01:09.005Z,18.00
2022-10-05T18:03:40.901Z,17.90
2022-10-05T18:06:38.879Z,17.90
2022-10-05T18:09:33.191Z,17.90
2022-10-05T18:12:41.935Z,17.80
2022-10-05T18:15:55.107Z,17.80
2022-10-05T18:18:54.766Z,17.90
2022-10-05T18:21:41.589Z,17.90
2022-10-05T18:24:46.054Z,17.90
2022-10-05T18:27:52.950Z,17.90
2022-10-05T18:30:24.419Z,17.90
2022-10-05T18:33:33.751Z,17.80
2022-10-05T18:36:19.566Z,17.80
2022-10-05T18:38:53.463Z,17.80
2022-10-05T18:41:26.799Z,17.70
2022-10-05T18:44:02.235Z,17.50
2022-10-05T18:46:36.747Z,17.40
2022-10-05T18:49:10.977Z,17.40
2022-10-05T18:51:48.425Z,17.30
2022-10-05T18:54:41.631Z,17.30
2022-10-05T18:57:46.294Z,17.30
2022-10-05T19:00:16.882Z,17.20
2022-10-05T19:02:46.321Z,17.10
2022-10-05T19:05:48.470Z,17.00
2022-10-05T19:08:24.544Z,16.80
2022-10-05T19:10:56.123Z,16.60
2022-10-05T19:13:32.148Z,16.50
2022-10-05T19:16:09.673Z,16.40
2022-10-05T19:18:46.362Z,16.30
2022-10-05T19:21:25.532Z,16.20
2022-10-05T19:24:11.140Z,16.20
2022-10-05T19:26:50.032Z,16.10
2022-10-05T19:29:36.608Z,16.00
2022-10-05T19:32:05.867Z,16.00
2022-10-05T19:34:49.036Z,16.00
2022-10-05T19:37:21.647Z,15.90
2022-10-05T19:39:56.146Z,15.90
2022-10-05T19:42:44.825Z,15.90
2022-10-05T19:45:19.778Z,15.90
2022-10-05T19:47:52.887Z,15.90
2022-10-05T19:50:26.366Z,15.90
2022-10-05T19:53:02.392Z,15.90
2022-10-05T19:55:37.992Z,15.90
2022-10-05T19:58:18.576Z,15.90
2022-10-05T20:00:57.093Z,15.90
2022-10-05T20:03:27.700Z,15.90
2022-10-05T20:05:58.720Z,15.90
2022-10-05T20:08:27.910Z,16.00
2022-10-05T20:11:08.592Z,16.00
2022-10-05T20:13:36.994Z,16.00
2022-10-05T20:16:46.248Z,16.00
2022-10-05T20:19:45.861Z,16.00
2022-10-05T20:22:28.022Z,16.00
2022-10-05T20:24:57.005Z,15.90
2022-10-05T20:27:47.654Z,16.00
2022-10-05T20:30:18.418Z,16.00
2022-10-05T20:32:50.365Z,16.00
2022-10-05T20:35:23.131Z,15.90
2022-10-05T20:37:51.642Z,15.90
2022-10-05T20:40:21.213Z,15.80
2022-10-05T20:42:51.757Z,15.70
2022-10-05T20:45:23.224Z,15.60
2022-10-05T20:47:51.442Z,15.50
2022-10-05T20:50:21.183Z,15.50
2022-10-05T20:52:51.938Z,15.40
2022-10-05T20:55:20.924Z,15.40
2022-10-05T20:57:50.724Z,15.30
2022-10-05T21:00:19.196Z,15.30
2022-10-05T21:02:48.376Z,15.30
2022-10-05T21:05:18.388Z,15.20
2022-10-05T21:07:46.888Z,15.20
2022-10-05T21:10:16.698Z,15.20
2022-10-05T21:12:44.943Z,15.20
2022-10-05T21:15:23.443Z,15.10
2022-10-05T21:17:51.903Z,15.10
2022-10-05T21:20:20.641Z,15.10
2022-10-05T21:22:50.446Z,15.10
2022-10-05T21:25:19.187Z,15.10
2022-10-05T21:27:48.757Z,15.10
2022-10-05T21:30:18.782Z,15.00
2022-10-05T21:32:51.512Z,15.10
2022-10-05T21:35:23.033Z,15.10
2022-10-05T21:37:56.172Z,15.10
2022-10-05T21:40:26.383Z,15.00
2022-10-05T21:42:54.741Z,15.00
2022-10-05T21:45:30.848Z,15.00
2022-10-05T21:47:59.087Z,15.00
2022-10-05T21:50:27.336Z,14.90
2022-10-05T21:52:55.817Z,14.90
2022-10-05T21:55:32.687Z,14.80
2022-10-05T21:58:01.291Z,14.80
2022-10-05T22:00:32.551Z,14.80
2022-10-05T22:03:01.229Z,14.80
2022-10-05T22:05:29.664Z,14.90
2022-10-05T22:07:57.927Z,14.90
2022-10-05T22:10:26.470Z,15.00
2022-10-05T22:12:55.388Z,15.00
2022-10-05T22:15:23.713Z,15.10
2022-10-05T22:17:56.498Z,15.10
2022-10-05T22:20:26.454Z,15.20
2022-10-05T22:22:55.467Z,15.30
2022-10-05T22:25:23.726Z,15.40
2022-10-05T22:27:55.695Z,15.50
2022-10-05T22:30:24.102Z,15.60
2022-10-05T22:32:52.484Z,15.60
2022-10-05T22:35:22.878Z,15.60
2022-10-05T22:37:53.788Z,15.70
2022-10-05T22:40:22.638Z,15.70
2022-10-05T22:42:53.295Z,15.70
2022-10-05T22:45:29.156Z,15.70
2022-10-05T22:48:06.133Z,15.70
2022-10-05T22:50:35.935Z,15.70
2022-10-05T22:53:04.218Z,15.70
2022-10-05T22:55:32.514Z,15.60
2022-10-05T22:58:00.919Z,15.70
2022-10-05T23:00:53.243Z,15.70
2022-10-05T23:03:17.503Z,15.60
2022-10-05T23:05:49.816Z,15.70
2022-10-05T23:08:20.786Z,15.70
2022-10-05T23:10:51.947Z,15.60
2022-10-05T23:13:22.471Z,15.60
2022-10-05T23:15:51.548Z,15.60
2022-10-05T23:18:27.681Z,15.60
2022-10-05T23:20:57.683Z,15.60
2022-10-05T23:23:27.457Z,15.60
2022-10-05T23:26:00.059Z,15.60
2022-10-05T23:28:40.069Z,15.60
2022-10-05T23:31:09.388Z,15.50
2022-10-05T23:33:37.733Z,15.50
2022-10-05T23:36:09.721Z,15.50
2022-10-05T23:38:47.059Z,15.50
2022-10-05T23:41:16.107Z,15.50
2022-10-05T23:43:45.066Z,15.40
2022-10-05T23:46:14.471Z,15.40
2022-10-05T23:48:45.794Z,15.40
2022-10-05T23:51:15.987Z,15.40
2022-10-05T23:53:46.812Z,15.40
2022-10-05T23:56:17.650Z,15.40
2022-10-05T23:58:46.208Z,15.40
